Time;durP1;ratioP1;P1;durP2;ratioP2;P2;SDS_P1;SDS_P2;PMS_P1;PMS_P2;Temp;Humidity;BMP_temperature;BMP_pressure;BME280_temperature;BME280_humidity;BME280_pressure;Samples;Min_cycle;Max_cycle;Signal;HPM_P1;HPM_P2
2023/05/01 00:01:55;;;;;;;8.30;6.70;;;7.00;99.90;;;-141.84;58.58;19569.97;5013977;28;20202;-55
2023/05/01 00:04:23;;;;;;;10.57;6.63;;;7.00;99.90;;;-141.84;59.64;19574.03;5032030;28;20248;-55
2023/05/01 00:06:51;;;;;;;9.10;7.00;;;6.90;99.90;;;-141.84;59.04;19561.84;5032086;28;20252;-55
2023/05/01 00:09:19;;;;;;;7.93;6.10;;;6.90;99.90;;;-141.84;58.65;19535.41;5031549;28;20221;-54
2023/05/01 00:11:48;;;;;;;8.73;5.80;;;6.90;99.90;;;-141.84;58.47;19586.22;5031105;28;20574;-55
2023/05/01 00:14:16;;;;;;;10.63;6.50;;;6.80;99.90;;;-141.84;57.94;19529.31;5012150;28;20203;-55
2023/05/01 00:16:46;;;;;;;10.33;5.60;;;6.80;99.90;;;-141.84;58.58;19555.75;5011491;28;20213;-57
2023/05/01 00:19:17;;;;;;;8.47;6.07;;;6.80;99.90;;;-141.84;58.56;19569.97;5011741;28;20183;-55
2023/05/01 00:21:47;;;;;;;8.57;6.10;;;6.80;99.90;;;-141.84;57.88;19539.47;5012137;28;20650;-56
2023/05/01 00:24:15;;;;;;;7.20;6.07;;;6.80;99.90;;;-141.84;58.15;19553.72;5022912;28;20240;-54
2023/05/01 00:26:44;;;;;;;6.50;5.70;;;6.80;99.90;;;-141.84;57.79;19596.38;5031446;28;20236;-56
2023/05/01 00:29:12;;;;;;;8.70;6.00;;;6.80;99.90;;;-141.84;57.66;19537.44;5031690;28;20225;-55
2023/05/01 00:31:41;;;;;;;7.07;5.80;;;6.80;99.90;;;-141.84;58.28;19553.72;5031447;28;20209;-55
2023/05/01 00:34:11;;;;;;;7.33;6.17;;;6.80;99.90;;;-141.84;58.58;19557.78;5031475;28;20202;-56
2023/05/01 00:36:39;;;;;;;7.27;5.97;;;6.70;99.90;;;-141.84;58.77;19569.97;5031333;28;20570;-53
2023/05/01 00:39:07;;;;;;;8.73;6.27;;;6.70;99.90;;;-141.84;59.08;19545.56;5011818;28;20683;-53
2023/05/01 00:41:36;;;;;;;9.40;6.07;;;6.60;99.90;;;-141.84;59.18;19517.13;5012918;28;20198;-52
2023/05/01 00:44:04;;;;;;;12.10;6.73;;;6.60;99.90;;;-141.84;59.41;19506.97;5031515;28;20206;-56
2023/05/01 00:46:35;;;;;;;9.23;6.50;;;6.50;99.90;;;-141.84;59.84;19519.16;5031331;28;20212;-57
2023/05/01 00:49:04;;;;;;;8.73;6.13;;;6.50;99.90;;;-141.84;59.35;19537.44;5031341;28;20218;-55
2023/05/01 00:51:34;;;;;;;10.97;7.03;;;6.50;99.90;;;-141.84;58.60;19539.47;5032486;28;20213;-54
2023/05/01 00:54:03;;;;;;;9.80;6.13;;;6.50;99.90;;;-141.84;57.81;19553.72;5032116;28;20205;-56
2023/05/01 00:56:31;;;;;;;8.37;6.33;;;6.60;99.90;;;-141.84;57.85;19555.75;5031646;28;20209;-56
2023/05/01 00:59:00;;;;;;;8.57;6.10;;;6.50;99.90;;;-141.84;58.21;19557.78;5031511;28;20301;-53
2023/05/01 01:01:29;;;;;;;7.10;5.93;;;6.60;99.90;;;-141.84;58.51;19563.88;5031252;28;20215;-56
2023/05/01 01:03:57;;;;;;;6.30;5.70;;;6.50;99.90;;;-141.84;58.35;19529.31;5031514;28;20210;-55
2023/05/01 01:06:42;;;;;;;6.90;5.67;;;6.60;99.90;;;-141.84;58.89;19509.00;5031521;28;20215;-56
2023/05/01 01:09:28;;;;;;;9.83;6.10;;;6.50;99.90;;;-141.84;58.53;19500.88;5021679;28;20214;-56
2023/05/01 01:12:15;;;;;;;7.77;5.57;;;6.40;99.90;;;-141.84;58.61;19498.84;5014082;28;20194;-55
2023/05/01 01:14:58;;;;;;;7.60;5.83;;;6.50;99.90;;;-141.84;58.18;19547.59;5031510;28;20236;-55
2023/05/01 01:17:36;;;;;;;7.57;5.57;;;6.50;99.90;;;-141.84;58.71;19525.25;5031379;28;20202;-54
2023/05/01 01:20:34;;;;;;;6.27;5.67;;;6.40;99.90;;;-141.84;58.49;19545.56;5031223;28;20279;-57
2023/05/01 01:23:31;;;;;;;6.90;5.47;;;6.40;99.90;;;-141.84;59.57;19527.28;5031476;28;20205;-54
2023/05/01 01:26:20;;;;;;;7.57;5.70;;;6.30;99.90;;;-141.84;59.83;19502.91;5031197;28;20194;-55
2023/05/01 01:29:35;;;;;;;7.37;5.90;;;6.20;99.90;;;-141.84;59.03;19502.91;5032186;28;20233;-56
2023/05/01 01:32:30;;;;;;;8.87;5.87;;;6.20;99.90;;;-141.84;59.40;19452.09;5034709;28;20212;-52
2023/05/01 01:35:06;;;;;;;9.60;5.63;;;6.10;99.90;;;-141.84;60.12;19464.28;5034654;28;20206;-57
2023/05/01 01:37:47;;;;;;;7.03;5.53;;;6.10;99.90;;;-141.84;60.16;19509.00;5035011;28;20198;-56
2023/05/01 01:40:22;;;;;;;9.10;6.30;;;6.00;99.90;;;-141.84;60.45;19468.34;5034977;28;20187;-55
2023/05/01 01:42:58;;;;;;;9.10;6.03;;;6.00;99.90;;;-141.84;60.21;19484.59;5034702;28;20223;-55
2023/05/01 01:45:39;;;;;;;7.23;5.43;;;5.90;99.90;;;-141.84;60.23;19460.22;5034852;28;20529;-56
2023/05/01 01:48:13;;;;;;;7.40;5.77;;;5.90;99.90;;;-141.84;60.38;19468.34;5034705;28;20186;-54
2023/05/01 01:50:45;;;;;;;9.00;6.33;;;5.90;99.90;;;-141.84;60.77;19486.66;5034320;28;20582;-55
2023/05/01 01:53:18;;;;;;;8.90;6.00;;;5.90;99.90;;;-141.84;60.23;19476.47;5034782;28;20197;-54
2023/05/01 01:55:49;;;;;;;9.50;5.87;;;5.90;99.90;;;-141.84;60.66;19478.50;5034653;28;20189;-55
2023/05/01 01:58:24;;;;;;;7.50;5.80;;;5.90;99.90;;;-141.84;60.63;19464.28;5034744;28;20233;-56
2023/05/01 02:00:55;;;;;;;7.23;5.60;;;5.90;99.90;;;-141.84;60.58;19492.75;5034587;28;20235;-55
2023/05/01 02:03:25;;;;;;;8.60;6.57;;;5.80;99.90;;;-141.84;60.66;19470.38;5034182;28;20631;-57
2023/05/01 02:05:57;;;;;;;6.50;5.67;;;5.80;99.90;;;-141.84;60.40;19458.19;5020675;28;20202;-55
2023/05/01 02:08:30;;;;;;;9.13;5.87;;;5.80;99.90;;;-141.84;60.51;19450.06;5020393;28;20760;-55
2023/05/01 02:11:01;;;;;;;6.77;5.40;;;5.80;99.90;;;-141.84;60.98;19464.28;5034269;28;20224;-53
2023/05/01 02:13:31;;;;;;;8.03;5.93;;;5.80;99.90;;;-141.84;60.84;19462.25;5034099;28;20225;-55
2023/05/01 02:16:02;;;;;;;6.80;6.10;;;5.70;99.90;;;-141.84;60.91;19468.34;5034924;28;20209;-54
2023/05/01 02:18:32;;;;;;;7.53;6.00;;;5.80;99.90;;;-141.84;61.17;19486.66;5035039;28;20186;-55
2023/05/01 02:21:05;;;;;;;8.50;6.13;;;5.70;99.90;;;-141.84;60.88;19464.28;5034692;28;20196;-55
2023/05/01 02:23:34;;;;;;;9.40;6.23;;;5.70;99.90;;;-141.84;61.22;19433.81;5034971;28;20193;-55
2023/05/01 02:26:04;;;;;;;8.60;5.97;;;5.70;99.90;;;-141.84;61.33;19454.13;5034816;28;20210;-54
2023/05/01 02:28:34;;;;;;;7.50;5.40;;;5.70;99.90;;;-141.84;60.82;19460.22;5034824;28;20189;-49
2023/05/01 02:31:04;;;;;;;8.47;5.97;;;5.70;99.90;;;-141.84;61.00;19460.22;5034702;28;20283;-55
2023/05/01 02:33:32;;;;;;;11.50;6.50;;;5.70;99.90;;;-141.84;61.52;19433.81;5034695;28;20292;-54
2023/05/01 02:36:02;;;;;;;9.63;6.03;;;5.50;99.90;;;-141.84;61.39;19435.84;5034673;28;20209;-54
2023/05/01 02:38:30;;;;;;;8.87;6.20;;;5.60;99.90;;;-141.84;61.04;19478.50;5034408;28;20280;-55
2023/05/01 02:41:00;;;;;;;7.30;5.67;;;5.70;99.90;;;-141.84;60.83;19423.66;5034044;28;20299;-52
2023/05/01 02:43:32;;;;;;;9.43;6.40;;;5.60;99.90;;;-141.84;60.38;19454.13;5034364;28;20576;-55
2023/05/01 02:46:04;;;;;;;9.67;6.30;;;5.70;99.90;;;-141.84;60.96;19462.25;5034123;28;20204;-56
2023/05/01 02:48:33;;;;;;;7.60;6.00;;;5.70;99.90;;;-141.84;60.96;19466.31;5034605;28;20193;-53
2023/05/01 02:51:06;;;;;;;7.67;6.37;;;5.70;99.90;;;-141.84;61.20;19437.88;5034255;28;20225;-54
2023/05/01 02:53:36;;;;;;;7.90;6.00;;;5.60;99.90;;;-141.84;61.04;19443.97;5034177;28;20559;-53
2023/05/01 02:56:06;;;;;;;8.97;6.10;;;5.60;99.90;;;-141.84;61.35;19425.69;5034700;28;20209;-54
2023/05/01 02:58:35;;;;;;;10.07;6.43;;;5.60;99.90;;;-141.84;61.38;19421.63;5034486;28;20199;-56
2023/05/01 03:01:04;;;;;;;8.67;6.07;;;5.60;99.90;;;-141.84;61.57;19409.41;5029363;28;20205;-54
2023/05/01 03:03:32;;;;;;;9.07;6.20;;;5.50;99.90;;;-141.84;61.78;19421.63;5022742;28;20255;-55
2023/05/01 03:06:02;;;;;;;6.70;5.73;;;5.50;99.90;;;-141.84;62.14;19423.66;5016167;28;20218;-56
2023/05/01 03:08:30;;;;;;;7.87;6.10;;;5.40;99.90;;;-141.84;61.79;19409.41;5021030;28;20239;-56
2023/05/01 03:10:58;;;;;;;9.57;6.50;;;5.40;99.90;;;-141.84;61.43;19435.84;5033968;28;20220;-50
2023/05/01 03:13:26;;;;;;;6.47;5.87;;;5.50;99.90;;;-141.84;61.53;19423.66;5033657;28;20220;-53
2023/05/01 03:15:54;;;;;;;8.33;6.50;;;5.50;99.90;;;-141.84;61.09;19441.94;5033622;28;20211;-52
2023/05/01 03:18:23;;;;;;;8.00;5.90;;;5.50;99.90;;;-141.84;61.67;19443.97;5033828;28;20232;-53
2023/05/01 03:20:52;;;;;;;8.00;6.50;;;5.50;99.90;;;-141.84;61.64;19429.75;5033633;28;20224;-53
2023/05/01 03:23:23;;;;;;;7.50;6.23;;;5.40;99.90;;;-141.84;61.66;19417.56;5033199;28;20211;-68
2023/05/01 03:25:53;;;;;;;10.93;6.80;;;5.40;99.90;;;-141.84;61.47;19429.75;5014056;28;20240;-52
2023/05/01 03:28:22;;;;;;;8.27;6.57;;;5.40;99.90;;;-141.84;61.51;19425.69;5018420;28;20197;-54
2023/05/01 03:30:51;;;;;;;10.47;6.77;;;5.40;99.90;;;-141.84;61.65;19423.66;5033528;28;20235;-56
2023/05/01 03:33:19;;;;;;;10.87;6.83;;;5.40;99.90;;;-141.84;61.43;19376.91;5033395;28;20211;-56
2023/05/01 03:35:47;;;;;;;9.67;6.90;;;5.40;99.90;;;-141.84;61.66;19409.41;5033290;28;20895;-55
2023/05/01 03:38:16;;;;;;;10.90;7.30;;;5.40;99.90;;;-141.84;62.11;19407.38;5033537;28;20209;-55
2023/05/01 03:40:45;;;;;;;8.67;7.47;;;5.40;99.90;;;-141.84;61.93;19415.50;5033503;28;20552;-55
2023/05/01 03:43:13;;;;;;;8.67;7.23;;;5.40;99.90;;;-141.84;61.46;19433.81;5033238;28;20205;-55
2023/05/01 03:45:41;;;;;;;10.20;7.43;;;5.40;99.90;;;-141.84;61.89;19429.75;5033443;28;20239;-53
2023/05/01 03:48:12;;;;;;;9.30;7.87;;;5.40;99.90;;;-141.84;61.60;19423.66;5033277;28;20202;-55
2023/05/01 03:50:41;;;;;;;11.73;8.10;;;5.40;99.90;;;-141.84;61.15;19462.25;5032668;28;20225;-55
2023/05/01 03:53:09;;;;;;;8.93;7.43;;;5.50;99.90;;;-141.84;61.66;19443.97;5032649;28;20208;-57
2023/05/01 03:55:37;;;;;;;11.57;8.37;;;5.50;99.90;;;-141.84;61.75;19427.72;5033248;28;20201;-56
2023/05/01 03:58:07;;;;;;;9.73;8.40;;;5.40;99.90;;;-141.84;60.96;19431.78;5022003;28;20202;-54
2023/05/01 04:00:35;;;;;;;13.63;9.00;;;5.50;99.90;;;-141.84;61.03;19441.94;5013455;28;20213;-53
2023/05/01 04:03:03;;;;;;;10.67;8.20;;;5.50;99.90;;;-141.84;60.98;19431.78;5023742;28;20202;-54
2023/05/01 04:05:32;;;;;;;11.10;7.97;;;5.60;99.90;;;-141.84;61.08;19413.47;5033108;28;20263;-55
2023/05/01 04:08:00;;;;;;;12.03;9.17;;;5.60;99.90;;;-141.84;61.11;19421.63;5032658;28;20681;-53
2023/05/01 04:10:28;;;;;;;11.80;9.77;;;5.60;99.90;;;-141.84;60.94;19419.59;5032704;28;20277;-54
2023/05/01 04:12:56;;;;;;;11.00;9.00;;;5.70;99.90;;;-141.84;61.03;19435.84;5032795;28;20220;-54
2023/05/01 04:15:26;;;;;;;12.23;10.03;;;5.70;99.90;;;-141.84;61.13;19439.91;5033072;28;20205;-54
2023/05/01 04:17:55;;;;;;;12.57;10.43;;;5.80;99.90;;;-141.84;60.42;19443.97;5032664;28;20300;-54
2023/05/01 04:20:23;;;;;;;13.53;9.87;;;5.90;99.90;;;-141.84;60.50;19484.59;5032558;28;20232;-54
2023/05/01 04:22:52;;;;;;;12.90;9.63;;;5.90;99.90;;;-141.84;60.19;19466.31;5033013;28;20205;-52
2023/05/01 04:25:20;;;;;;;10.97;9.63;;;6.00;99.90;;;-141.84;60.08;19486.66;5032643;28;20216;-55
2023/05/01 04:27:48;;;;;;;14.47;10.43;;;6.10;99.90;;;-141.84;60.47;19452.09;5032357;28;20245;-57
2023/05/01 04:30:17;;;;;;;13.37;10.57;;;6.10;99.90;;;-141.84;59.78;19492.75;5012706;28;20221;-56
2023/05/01 04:32:46;;;;;;;13.57;10.53;;;6.20;99.90;;;-141.84;60.01;19496.81;5020739;28;20220;-56
2023/05/01 04:35:15;;;;;;;15.00;11.93;;;6.30;99.90;;;-141.84;59.62;19533.38;5027843;28;20197;-55
2023/05/01 04:37:43;;;;;;;13.80;10.53;;;6.40;99.90;;;-141.84;58.89;19541.50;5024815;28;20212;-54
2023/05/01 04:40:12;;;;;;;14.00;11.30;;;6.50;99.90;;;-141.84;58.39;19555.75;5032808;28;20539;-53
2023/05/01 04:42:41;;;;;;;15.20;10.90;;;6.60;99.90;;;-141.84;58.36;19549.63;5032446;28;20208;-54
2023/05/01 04:45:10;;;;;;;14.90;11.13;;;6.70;99.90;;;-141.84;58.58;19586.22;5015707;28;20207;-56
2023/05/01 04:47:38;;;;;;;16.00;12.00;;;6.80;99.90;;;-141.84;58.28;19569.97;5012669;28;20202;-56
2023/05/01 04:50:09;;;;;;;17.27;12.40;;;7.00;99.90;;;-141.84;57.80;19630.94;5012879;28;20214;-57
2023/05/01 04:52:37;;;;;;;14.50;12.63;;;7.10;99.90;;;-141.84;56.13;19616.72;5012822;28;20197;-55
2023/05/01 04:55:08;;;;;;;14.83;12.43;;;7.20;99.90;;;-141.84;56.62;19616.72;5013608;28;20209;-54
2023/05/01 04:57:36;;;;;;;15.33;12.27;;;7.40;99.90;;;-141.84;56.93;19626.88;5012524;28;20630;-56
2023/05/01 05:00:06;;;;;;;15.30;12.87;;;7.50;99.90;;;-141.84;56.37;19630.94;5012891;28;20583;-55
2023/05/01 05:02:34;;;;;;;15.77;14.17;;;7.60;99.90;;;-141.84;55.75;19655.31;5019730;28;20201;-54
2023/05/01 05:05:03;;;;;;;16.47;13.23;;;7.80;99.90;;;-141.84;55.84;19659.38;5028899;28;20209;-56
2023/05/01 05:07:32;;;;;;;18.93;13.80;;;8.00;99.90;;;-141.84;54.38;19805.72;5016665;28;20202;-55
2023/05/01 05:10:01;;;;;;;19.30;15.17;;;8.40;99.90;;;-141.84;52.58;19805.72;5035539;28;20190;-53
2023/05/01 05:12:29;;;;;;;19.07;14.67;;;8.70;99.90;;;-141.84;52.50;19809.78;5036153;28;20221;-53
2023/05/01 05:14:57;;;;;;;18.50;15.90;;;8.80;99.90;;;-141.84;52.10;19797.59;5036380;28;20201;-55
2023/05/01 05:17:25;;;;;;;20.13;16.70;;;8.90;99.90;;;-141.84;52.40;19767.09;5035892;28;20536;-54
2023/05/01 05:19:54;;;;;;;21.53;17.37;;;9.00;99.90;;;-141.84;51.47;19805.72;5036274;28;20249;-55
2023/05/01 05:22:24;;;;;;;21.97;16.93;;;9.10;99.90;;;-141.84;51.50;19807.75;5036094;28;20198;-55
2023/05/01 05:24:58;;;;;;;20.97;17.23;;;9.20;99.90;;;-141.84;51.76;19821.97;5036060;28;20225;-53
2023/05/01 05:27:27;;;;;;;21.87;16.47;;;9.30;99.90;;;-141.84;51.28;19826.03;5035532;28;20245;-56
2023/05/01 05:29:55;;;;;;;21.23;16.57;;;9.30;99.90;;;-141.84;51.94;19811.81;5035912;28;20202;-52
2023/05/01 05:32:24;;;;;;;20.03;16.57;;;9.20;99.90;;;-141.84;52.12;19809.78;5035101;28;20230;-54
2023/05/01 05:34:52;;;;;;;20.47;16.73;;;9.20;99.90;;;-141.84;51.21;19809.78;5035955;28;20222;-55
2023/05/01 05:37:20;;;;;;;18.80;14.93;;;9.30;99.90;;;-141.84;51.14;19862.63;5035779;28;20202;-54
2023/05/01 05:39:49;;;;;;;20.23;15.67;;;9.40;99.90;;;-141.84;50.53;19907.31;5035774;28;20228;-54
2023/05/01 05:42:18;;;;;;;18.43;15.47;;;9.50;99.90;;;-141.84;50.71;19887.00;5035429;28;20198;-54
2023/05/01 05:44:46;;;;;;;18.83;16.00;;;9.60;99.90;;;-141.84;50.95;19895.13;5035833;28;20198;-55
2023/05/01 05:47:14;;;;;;;18.30;14.67;;;9.70;99.90;;;-141.84;50.14;19882.94;5035377;28;20206;-55
2023/05/01 05:49:43;;;;;;;17.60;14.90;;;9.80;99.90;;;-141.84;50.43;19909.34;5031571;28;20221;-51
2023/05/01 05:52:11;;;;;;;21.70;14.90;;;9.90;99.90;;;-141.84;50.07;19921.56;5028516;28;20225;-54
2023/05/01 05:54:39;;;;;;;16.23;14.20;;;10.00;99.90;;;-141.84;49.50;19931.72;5035518;28;20217;-55
2023/05/01 05:57:07;;;;;;;17.00;14.33;;;10.10;99.90;;;-141.84;49.40;19903.25;5035212;28;20205;-54
2023/05/01 05:59:37;;;;;;;16.20;13.83;;;10.00;99.90;;;-141.84;49.83;19927.66;5035125;28;20202;-55
2023/05/01 06:02:05;;;;;;;15.93;14.23;;;10.00;99.90;;;-141.84;49.71;19935.78;5034898;28;20606;-55
2023/05/01 06:04:33;;;;;;;14.90;12.57;;;10.00;99.90;;;-141.84;50.51;19884.97;5035232;28;20256;-55
2023/05/01 06:07:02;;;;;;;16.63;13.80;;;9.90;99.90;;;-141.84;50.90;19897.16;5035338;28;20209;-59
2023/05/01 06:09:30;;;;;;;17.77;14.07;;;9.90;99.90;;;-141.84;51.11;19868.72;5034945;28;20202;-54
2023/05/01 06:11:58;;;;;;;15.80;13.03;;;9.90;99.90;;;-141.84;50.40;19907.31;5015376;28;20230;-54
2023/05/01 06:14:26;;;;;;;17.33;14.37;;;10.00;99.90;;;-141.84;51.19;19872.78;5014455;28;20203;-53
2023/05/01 06:16:56;;;;;;;16.80;13.57;;;10.00;99.90;;;-141.84;50.38;19917.50;5015191;28;20207;-52
2023/05/01 06:19:24;;;;;;;15.07;12.50;;;10.00;99.90;;;-141.84;51.05;19893.09;5014957;28;20246;-57
2023/05/01 06:21:52;;;;;;;14.43;12.77;;;10.10;99.90;;;-141.84;50.63;19921.56;5014735;28;20207;-54
2023/05/01 06:24:20;;;;;;;13.93;11.93;;;10.20;99.90;;;-141.84;50.52;19935.78;5014468;28;20209;-56
2023/05/01 06:26:48;;;;;;;15.00;12.20;;;10.30;99.90;;;-141.84;50.95;19956.09;5014706;28;20918;-58
2023/05/01 06:29:17;;;;;;;13.57;11.70;;;10.30;99.90;;;-141.84;51.03;19927.66;5026886;28;20202;-54
2023/05/01 06:31:45;;;;;;;14.37;12.87;;;10.40;99.90;;;-141.84;50.40;19972.38;5034471;28;20218;-55
2023/05/01 06:34:15;;;;;;;16.00;12.60;;;10.60;99.90;;;-141.84;50.31;19988.63;5021288;28;20190;-55
2023/05/01 06:36:43;;;;;;;20.47;13.53;;;10.70;99.90;;;-141.84;50.10;20025.22;5034481;28;20202;-56
2023/05/01 06:39:11;;;;;;;15.40;12.70;;;10.80;99.90;;;-141.84;49.83;20021.16;5034720;28;20202;-54
2023/05/01 06:41:39;;;;;;;15.40;13.00;;;10.90;99.90;;;-141.84;49.29;20047.56;5034344;28;20198;-54
2023/05/01 06:44:07;;;;;;;18.53;13.77;;;11.00;99.90;;;-141.84;49.00;20015.03;5034637;28;20206;-56
2023/05/01 06:46:35;;;;;;;15.93;12.30;;;11.10;99.90;;;-141.84;49.24;20055.69;5015446;28;20214;-54
2023/05/01 06:49:04;;;;;;;13.63;12.23;;;11.20;99.90;;;-141.84;49.10;20029.28;5013712;28;20670;-54
2023/05/01 06:51:33;;;;;;;14.87;12.13;;;11.30;99.90;;;-141.84;49.28;20065.84;5013809;28;20290;-54
2023/05/01 06:54:01;;;;;;;13.53;12.13;;;11.40;99.90;;;-141.84;48.69;20102.44;5013887;28;20214;-54
2023/05/01 06:56:31;;;;;;;14.60;12.80;;;11.50;99.90;;;-141.84;48.79;20134.97;5013810;28;20218;-56
2023/05/01 06:58:59;;;;;;;15.00;12.63;;;11.60;99.90;;;-141.84;48.03;20108.53;5032754;28;20229;-54
2023/05/01 07:01:29;;;;;;;16.60;12.90;;;11.80;99.90;;;-141.84;48.95;20128.88;5033759;28;20202;-55
2023/05/01 07:04:00;;;;;;;14.00;11.87;;;11.80;99.90;;;-141.84;48.64;20112.59;5034287;28;20233;-54
2023/05/01 07:06:31;;;;;;;13.80;12.40;;;11.80;99.90;;;-141.84;48.25;20122.78;5033678;28;20224;-53
2023/05/01 07:09:00;;;;;;;15.83;12.57;;;11.80;99.90;;;-141.84;48.35;20134.97;5033453;28;20186;-53
2023/05/01 07:11:28;;;;;;;12.80;11.43;;;11.80;99.90;;;-141.84;47.97;20175.63;5033342;28;20198;-55
2023/05/01 07:13:57;;;;;;;14.60;12.20;;;11.90;99.90;;;-141.84;48.46;20118.69;5033329;28;20700;-57
2023/05/01 07:16:25;;;;;;;16.47;12.93;;;12.00;99.90;;;-141.84;47.93;20159.34;5033327;28;20202;-56
2023/05/01 07:18:53;;;;;;;15.30;12.13;;;12.00;99.90;;;-141.84;47.65;20155.28;5033187;28;20206;-56
2023/05/01 07:21:21;;;;;;;14.87;11.90;;;12.10;99.90;;;-141.84;47.74;20132.94;5032711;28;20575;-56
2023/05/01 07:23:49;;;;;;;14.90;12.80;;;12.10;99.90;;;-141.84;47.62;20151.22;5033158;28;20210;-55
2023/05/01 07:26:19;;;;;;;12.73;11.50;;;12.00;99.90;;;-141.84;47.19;20151.22;5032786;28;20238;-56
2023/05/01 07:28:47;;;;;;;14.83;12.43;;;12.10;99.90;;;-141.84;46.50;20179.69;5032552;28;20678;-55
2023/05/01 07:31:15;;;;;;;13.83;11.60;;;12.20;99.90;;;-141.84;46.57;20155.28;5032560;28;20678;-56
2023/05/01 07:33:44;;;;;;;14.80;12.60;;;12.00;99.90;;;-141.84;46.85;20171.56;5032447;28;20230;-54
2023/05/01 07:36:12;;;;;;;15.20;10.73;;;12.10;99.90;;;-141.84;46.79;20210.16;5032645;28;20441;-53
2023/05/01 07:38:41;;;;;;;15.00;11.70;;;12.30;99.90;;;-141.84;46.49;20210.16;5032633;28;20563;-56
2023/05/01 07:41:09;;;;;;;14.37;11.23;;;12.40;99.90;;;-141.84;46.55;20230.50;5032835;28;20206;-57
2023/05/01 07:43:38;;;;;;;13.67;11.40;;;12.50;99.90;;;-141.84;46.35;20258.94;5016566;28;20209;-56
2023/05/01 07:46:06;;;;;;;15.37;11.87;;;12.60;99.90;;;-141.84;45.38;20275.22;5013071;28;20207;-53
2023/05/01 07:48:34;;;;;;;15.63;12.07;;;12.80;99.90;;;-141.84;45.33;20252.84;5012771;28;20245;-55
2023/05/01 07:51:06;;;;;;;12.40;10.43;;;12.80;99.90;;;-141.84;45.75;20301.63;5012828;28;20195;-55
2023/05/01 07:53:34;;;;;;;12.88;11.43;;;12.90;99.90;;;-141.84;44.61;20313.84;5017832;28;20222;-55
2023/05/01 07:56:07;;;;;;;13.67;11.80;;;12.90;99.90;;;-141.84;45.57;20265.03;5032392;28;20205;-53
2023/05/01 07:58:39;;;;;;;12.87;11.37;;;13.00;99.90;;;-141.84;45.52;20293.50;5032376;28;20193;-58
2023/05/01 08:01:08;;;;;;;15.33;11.80;;;13.00;99.90;;;-141.84;44.05;20309.75;5032323;28;20182;-56
2023/05/01 08:03:36;;;;;;;13.97;11.37;;;13.10;99.90;;;-141.84;44.59;20315.88;5032868;28;20198;-59
2023/05/01 08:06:05;;;;;;;12.52;11.23;;;13.00;99.90;;;-141.84;44.59;20315.88;5032712;28;20244;-55
2023/05/01 08:08:34;;;;;;;13.77;11.23;;;13.10;99.90;;;-141.84;44.99;20289.44;5032662;28;20199;-52
2023/05/01 08:11:02;;;;;;;13.77;12.13;;;13.10;99.90;;;-141.84;44.87;20295.53;5032539;28;20198;-54
2023/05/01 08:13:30;;;;;;;15.70;11.97;;;13.00;99.90;;;-141.84;44.69;20358.56;5032033;28;20230;-54
2023/05/01 08:16:03;;;;;;;13.57;11.67;;;13.10;99.90;;;-141.84;44.67;20332.13;5032944;28;20213;-56
2023/05/01 08:18:31;;;;;;;12.27;10.97;;;13.20;99.90;;;-141.84;44.26;20378.88;5032792;28;20289;-56
2023/05/01 08:20:59;;;;;;;12.57;11.07;;;13.30;99.90;;;-141.84;44.90;20378.88;5032218;28;20202;-52
2023/05/01 08:23:28;;;;;;;13.97;12.07;;;13.30;99.90;;;-141.84;44.35;20362.63;5032499;28;20670;-53
2023/05/01 08:25:56;;;;;;;12.03;10.70;;;13.40;99.90;;;-141.84;43.26;20393.09;5032516;28;20220;-56
2023/05/01 08:28:25;;;;;;;13.13;10.97;;;13.40;99.90;;;-141.84;43.30;20382.94;5032564;28;20183;-54
2023/05/01 08:30:53;;;;;;;16.03;11.90;;;13.50;99.90;;;-141.84;43.49;20427.66;5032557;28;20198;-54
2023/05/01 08:33:23;;;;;;;11.93;9.93;;;13.50;99.90;;;-141.84;43.88;20405.31;5031995;28;20233;-58
2023/05/01 08:35:52;;;;;;;16.33;10.90;;;13.60;99.90;;;-141.84;43.10;20441.88;5013404;28;20286;-55
2023/05/01 08:38:20;;;;;;;14.77;11.73;;;13.70;99.90;;;-141.84;43.40;20419.53;5013185;28;20753;-55
2023/05/01 08:40:55;;;;;;;14.93;11.25;;;13.80;99.90;;;-141.84;44.14;20425.63;5012432;28;20206;-56
2023/05/01 08:43:25;;;;;;;13.85;10.98;;;13.80;99.90;;;-141.84;43.88;20478.47;5027056;28;20280;-54
2023/05/01 08:45:58;;;;;;;12.27;11.07;;;13.80;99.90;;;-141.84;43.10;20480.50;5031518;28;20213;-53
2023/05/01 08:48:29;;;;;;;12.80;10.75;;;14.00;99.90;;;-141.84;43.03;20492.72;5031599;28;20273;-52
2023/05/01 08:51:00;;;;;;;12.25;10.90;;;14.10;99.90;;;-141.84;42.66;20496.78;5030964;28;20580;-51
2023/05/01 08:53:31;;;;;;;12.90;10.65;;;14.20;99.90;;;-141.84;42.66;20492.72;5031449;28;20210;-53
2023/05/01 08:56:06;;;;;;;11.60;10.43;;;14.30;99.90;;;-141.84;42.09;20508.97;5031743;28;20186;-56
2023/05/01 08:58:36;;;;;;;12.60;11.02;;;14.40;99.90;;;-141.84;41.89;20545.56;5031354;28;20193;-55
2023/05/01 09:01:06;;;;;;;12.20;10.52;;;14.40;99.90;;;-141.84;42.13;20567.91;5031494;28;20191;-53
2023/05/01 09:03:37;;;;;;;14.18;10.50;;;14.50;99.90;;;-141.84;41.48;20598.41;5030834;28;20202;-56
2023/05/01 09:06:06;;;;;;;13.85;10.98;;;14.70;99.90;;;-141.84;41.96;20582.16;5031083;28;20189;-52
2023/05/01 09:08:34;;;;;;;14.35;11.43;;;14.70;99.90;;;-141.84;42.17;20592.31;5031562;28;20198;-55
2023/05/01 09:11:05;;;;;;;12.63;11.25;;;14.70;99.90;;;-141.84;41.46;20630.94;5031567;28;20618;-54
2023/05/01 09:13:33;;;;;;;13.50;11.13;;;14.80;99.90;;;-141.84;41.48;20594.34;5030945;28;20206;-56
2023/05/01 09:16:02;;;;;;;14.32;11.20;;;14.70;99.90;;;-141.84;42.49;20565.88;5031352;28;20225;-54
2023/05/01 09:18:31;;;;;;;15.07;11.80;;;14.60;99.90;;;-141.84;42.30;20584.19;5031114;28;20206;-54
2023/05/01 09:21:00;;;;;;;13.48;11.05;;;14.70;99.90;;;-141.84;42.25;20614.66;5031360;28;20202;-55
2023/05/01 09:23:29;;;;;;;14.43;11.18;;;14.80;99.90;;;-141.84;40.83;20681.75;5031305;28;20209;-57
2023/05/01 09:25:59;;;;;;;14.15;11.07;;;15.10;99.90;;;-141.84;40.32;20710.22;5030683;28;20670;-54
2023/05/01 09:28:41;;;;;;;11.43;10.23;;;15.20;99.90;;;-141.84;39.95;20748.84;5031553;28;20188;-54
2023/05/01 09:31:22;;;;;;;12.93;9.95;;;15.40;99.90;;;-141.84;40.00;20736.63;5030886;28;20286;-55
2023/05/01 09:33:55;;;;;;;12.52;10.60;;;15.50;99.90;;;-141.84;39.27;20779.31;5030643;28;20576;-54
2023/05/01 09:36:26;;;;;;;10.18;9.13;;;15.60;99.90;;;-141.84;38.67;20862.69;5013681;28;20199;-58
2023/05/01 09:38:55;;;;;;;11.15;8.90;;;15.70;99.90;;;-141.84;38.56;20844.38;5011471;28;20191;-56
2023/05/01 09:41:24;;;;;;;11.20;9.55;;;15.90;99.90;;;-141.84;38.18;20878.94;5011070;28;20210;-56
2023/05/01 09:43:54;;;;;;;11.55;9.30;;;16.10;99.90;;;-141.84;38.20;20927.72;5010914;28;20212;-53
2023/05/01 09:46:24;;;;;;;11.90;8.57;;;16.30;99.90;;;-141.84;37.21;20996.84;5018636;28;20444;-55
2023/05/01 09:48:55;;;;;;;11.63;8.68;;;16.60;99.90;;;-141.84;37.03;20992.78;5028518;28;20198;-54
2023/05/01 09:51:28;;;;;;;9.73;8.70;;;16.70;99.90;;;-141.84;37.14;21029.38;5033901;28;20186;-55
2023/05/01 09:53:59;;;;;;;12.55;9.18;;;16.80;99.90;;;-141.84;36.49;21065.97;5033509;28;20221;-54
2023/05/01 09:56:31;;;;;;;9.23;8.32;;;16.80;99.90;;;-141.84;36.89;21049.72;5034657;28;20187;-55
2023/05/01 09:59:16;;;;;;;10.18;8.05;;;17.00;99.90;;;-141.84;36.78;21065.97;5022492;28;20209;-53
2023/05/01 10:01:46;;;;;;;8.88;7.90;;;17.10;99.90;;;-141.84;35.50;21116.78;5034404;28;20178;-54
2023/05/01 10:04:15;;;;;;;8.70;7.35;;;17.30;99.90;;;-141.84;35.81;21131.03;5014345;28;20183;-55
2023/05/01 10:06:45;;;;;;;11.48;7.72;;;17.40;99.90;;;-141.84;35.74;21165.59;5014387;28;20238;-53
2023/05/01 10:09:28;;;;;;;11.38;7.80;;;17.60;99.90;;;-141.84;35.89;21159.50;5026491;28;20205;-55
2023/05/01 10:11:57;;;;;;;12.57;8.70;;;17.60;99.90;;;-141.84;35.69;21173.72;5032993;28;20677;-53
2023/05/01 10:14:28;;;;;;;9.13;8.07;;;17.60;99.90;;;-141.84;36.14;21106.63;5022142;28;20222;-55
2023/05/01 10:16:56;;;;;;;8.50;7.55;;;17.50;99.90;;;-141.84;36.11;21090.38;5021217;28;20202;-57